arxmliv
arxmliv build tool
 
KWARC group
LaTeXML
About
   
 

Detailed info

Back to Homepage

List of missing_macros

No. Date Filename num_warningnum_errornum_xmargok_xmargnum_xmathok_xmathMissing macros
92601 2013-03-13 06:21:10 /0806/0806.3845 10200000[\psfrag].
92602 2013-03-13 06:21:07 /0806/0806.3856 490000[\editors, \affiliation, \keywords, \volume, \firstsection, \pagerange, \jname, \pubyear, \etal]; 1 missing file[iaus.cls].
92603 2013-03-13 06:21:01 /0806/0806.3846 1510000[{comment}].
92604 2013-03-13 06:20:58 /0806/0806.3860 030000[\kword, \abst, \inst].
92605 2013-03-13 06:20:14 /0806/0806.3810 287300000[{theorem}, \URLaddressD, \EmailD, \pdfbookmark, \LastPageEnding, \Classification, \ArticleDates, {example}, {remark}, \AuthorNameForHeading, {proposition}, \Abstract, \ArticleName, \ShortArticleName, \FirstPageHeading, \Address, \Author, {definition}, {c
92606 2013-03-13 06:19:55 /0806/0806.3809 1650000[Align, \setlongtables, \xymatrix, \ar]; 1 missing file[xy.sty].
92607 2013-03-13 06:19:53 /0806/0806.3839 320000[\pacs, \institute]; 1 missing file[epl2.cls].
92608 2013-03-13 06:19:33 /0806/0806.3831 0180000[\tnoteref, \newproof, \dateenglish, \extrasenglish, \tnotetext, {@proof}, {pot}, \captionsenglish, \newdefinition].
92609 2013-03-13 06:19:26 /0806/0806.3821 040000[{acknowledgments}, \kword, \abst, \inst].
92610 2013-03-13 06:19:17 /0806/0806.3811 2410000[\mapsfrom].
92611 2013-03-13 06:19:16 /0806/0806.3826 380000[\sodauthor, \rauthor, \address, \sodtitle, \dates, \lat, \PACS, \rtitle].
92612 2013-03-13 06:19:11 /0806/0806.3803 50490000[\textswab].
92613 2013-03-13 06:18:44 /0806/0806.3816 030000[\kword, \abst, \inst].
92614 2013-03-13 06:18:37 /0806/0806.3804 0380000[\psfig, \bodymatter, \keywords]; 1 missing file[ws.sty].
92615 2013-03-13 06:18:26 /0806/0806.3805 030000[\extrasenglish, \dateenglish, \captionsenglish].
92616 2013-03-13 06:18:24 /0806/0806.3798 40170000[\apj, \apjl, \nat, \aap, \rmp, \mnras, \araa, \qjras]; 1 missing file[aas_macros.sty].
92617 2013-03-13 06:18:23 /0806/0806.3783 610000[\geometry].
92618 2013-03-13 06:18:07 /0806/0806.3797 010000[\textswab].
92619 2013-03-13 06:18:02 /0806/0806.3771 470000[\UseAllTwocells, Align, \SelectTips, \xymatrix, \UseTips, \ar]; 1 missing file[xy.sty].
92620 2013-03-13 06:17:58 /0806/0806.3795 150000[\affil, \acknowledgements, \ga, \micron]; 1 missing file[asp2006.sty].
92621 2013-03-13 06:17:53 /0806/0806.3781 2120000[\epsfbox, \epsfxsize].
92622 2013-03-13 06:17:51 /0806/0806.3782 1340000[{theacknowledgments}, \layoutstyle, \classification]; 1 missing file[{aipcheck}].
92623 2013-03-13 06:17:45 /0806/0806.3751 240000[\theappendix, \onltab].
92624 2013-03-13 06:17:35 /0806/0806.3776 820000[\shadowbox].
92625 2013-03-13 06:16:56 /0806/0806.3763 130000[\extrasenglish, \dateenglish, \captionsenglish].
92626 2013-03-13 06:16:49 /0806/0806.3747 2200000[\apj, \timeform, \citep, \lesssim, \pasj, \apjl, \aap, \Accepted, \email, \KeyWords, \draft, \altaffilmark, \Received, \mnras, \gtrsim, \FigureFile, \altaffiltext, \citet, \degree, \SetRunningHead]; 1 missing file[pasj00.cls].
92627 2013-03-13 06:16:47 /0806/0806.3764 040000[\affil, \citep, \acknowledgements]; 1 missing file[asp2006.sty].
92628 2013-03-13 06:16:45 /0806/0806.3737 340000[{tablenotes}, \pdfstringdefDisableCommands, {threeparttable}]; 1 missing file[threeparttable.sty].
92629 2013-03-13 06:16:40 /0806/0806.3743 3160000[Align, \xyoption, \@end@institute, \xymatrix, \ar]; 1 missing file[xy.sty].
92630 2013-03-13 06:16:28 /0806/0806.3636 11910000[\rightarrowtriangle].
92631 2013-03-13 06:16:05 /0806/0806.3727 2010000[\citen].
92632 2013-03-13 06:15:56 /0806/0806.3744 270000[\PACSes, \TITLE, \BY, \IN, \PACSit, \instlist, \from].
92633 2013-03-13 06:14:37 /0806/0806.3712 3830000[Align, \xymatrix, \ar].
92634 2013-03-13 06:14:34 /0806/0806.3714 7310000[\theappendix].
92635 2013-03-13 06:14:27 /0806/0806.3695 6030000[\xymatrix, \ar]; 1 missing file[xy.sty].
92636 2013-03-13 06:14:01 /0806/0806.3710 6130000[\EndFunction, {algorithm}, \citename, \Until, {algorithmic}, \Repeat, \Function, \State, \Return]; 1 missing file[coling08.sty].
92637 2013-03-13 06:13:43 /0806/0806.3674 20070000[\Text, \Vertex, \SetWidth, \Eins, \Photon, \DashLine]; 1 missing file[mathbbol.sty].
92638 2013-03-13 06:13:27 /0806/0806.3697 8120000[\draft, \lesssim, \citep, \altaffilmark, \Received, \FigureFile, \Accepted, \gtrsim, \citet, \altaffiltext, \SetRunningHead, \KeyWords]; 1 missing file[pasj00.cls].
92639 2013-03-13 06:13:08 /0806/0806.3703 1170000[{acknowledgments}, \lesssim, \midrule, \shortauthor, \tablecols, \micron, \dateenglish, \altaffil, \extrasenglish, \SetYear, \shorttitle, \gtrsim, \SetConfTitle, \addkeyword, \toprule, \bottomrule, \captionsenglish].
92640 2013-03-13 06:13:03 /0806/0806.3682 2580000[Align, \xymatrix, \entrymodifiers, \ar].
92641 2013-03-13 06:12:53 /0806/0806.3681 530000[\appendices, {IEEEproof}]; 2 missing files[pst-all.sty, IEEEtran.cls].
92642 2013-03-13 06:12:47 /0806/0806.3676 160000[\extrasenglish, \email, \rrbracket, \llbracket, \dateenglish, \captionsenglish].
92643 2013-03-13 06:12:25 /0806/0806.3673 8230000[{fmfchar*}, \fmffreeze, {fmffile}, \fmfblob, \fmfrightn, \fmf, \fmflabel, \fmfdot, \fmfbottomn, {fmfgraph*}, \fmfleftn, \fmfleft, \psfrag, \fmftopn].
92644 2013-03-13 06:12:23 /0806/0806.3615 161320000[Align, \xymatrix, \ar]; 1 missing file[xy.sty].
92645 2013-03-13 06:12:07 /0806/0806.3635 1850000[Align, \xymatrix, \ar, \setmarginsrb]; 1 missing file[xy.sty].
92646 2013-03-13 06:11:52 /0806/0806.3678 330000[{theacknowledgments}, \layoutstyle, \classification].
92647 2013-03-13 06:11:02 /0806/0806.3653 220000[\IEEEauthorblockA, \IEEEauthorblockN]; 1 missing file[IEEEtran.cls].
92648 2013-03-13 06:10:33 /0806/0806.3658 030000[\extrasenglish, \dateenglish, \captionsenglish].
92649 2013-03-13 06:10:08 /0806/0806.3650 420000[{IEEEkeywords}, \IEEEmembership]; 1 missing file[IEEEtran.cls].
92650 2013-03-13 06:10:08 /0806/0806.3651 420000[\unit]; 1 missing file[tabulary.sty].
92651 2013-03-13 06:10:05 /0806/0806.3643 0150000[\apj, \indexauthor, \shortauthor, \dateenglish, \altaffilmark, \extrasenglish, \mnras, \apjs, \SetYear, \listofauthors, \shorttitle, \SetConfTitle, \addkeyword, \altaffiltext, \captionsenglish].
92652 2013-03-13 06:09:59 /0806/0806.3483 335230000[{lemma}, {theorem}, \illclogo, \samenvatting, \addappheadtotoc, \acknowledgments, \noappendicestocpagenum, {definition}, \thechapter, \symbols, \setlongtables, {conjecture}, {corollary}, {proposition}]; 1 missing file[illcdiss.cls].
92653 2013-03-13 06:09:19 /0806/0806.3637 110000[{keywords}]; 1 missing file[IEEEtran.cls].
92654 2013-03-13 06:07:50 /0806/0806.3569 57200000[{prop}, {theo}, {rema}, {lemm}, \urladdr, \email, {altabstract}, {enonce}, {coro}, {defi}]; 3 missing files[version.sty, import.sty, xy.sty].
92655 2013-03-13 06:07:06 /0806/0806.3579 260000[\address, {history}, \revised, \varkappa, \keywords, \received]; 1 missing file[WS-IJMPE.cls].
92656 2013-03-13 06:06:49 /0806/0806.3560 38310000[{lemma}, {theorem}, \URLaddressD, \EmailD, \pdfbookmark, \LastPageEnding, \Classification, \ArticleDates, \goth, {conjecture}, {remark}, \AuthorNameForHeading, {proposition}, \Abstract, \ArticleName, \ShortArticleName, \FirstPageHeading, \Address, \Autho
92657 2013-03-13 06:06:13 /0806/0806.3557 4210000[\theappendix].
92658 2013-03-13 06:06:08 /0806/0806.3552 510000[\theappendix].
92659 2013-03-13 06:06:04 /0806/0806.3553 180000[\eqref, {lemma}, {theorem}, \mathbb, \theoremstyle, {definition}, {remark}, {proof}]; 1 missing file[my_IJMS.cls].
92660 2013-03-13 06:05:39 /0806/0806.3539 16130000[Align, \psfrag, \xymatrix, \ar]; 9 missing files[xycurve.sty, xymatrix.sty, xyline.sty, xyarrow.sty, xycmtip.sty, xycolor.sty, xyrotate.sty, xyframe.sty, xygraph.sty].
92661 2013-03-13 06:05:27 /0806/0806.3545 18100000[{lemma}, {theorem}, \curvearrowleft, \mathbb, \harvarditem, {definition}, \harvardyearleft, \harvardand, {proof}, \harvardyearright]; 1 missing file[my_ijamas.cls].
92662 2013-03-13 06:05:24 /0806/0806.3542 34110000[\affaddr, \numberofauthors, \terms, \alignauthor, \keywords, \email, \category, \balancecolumns, {proof}, \newdef, \definition].
92663 2013-03-13 06:05:00 /0806/0806.3544 020000[Align].
92664 2013-03-13 06:04:40 /0806/0806.3531 610000[\geometry].
92665 2013-03-13 06:04:29 /0806/0806.3534 1930000[\unichar, \PrerenderUnicode]; 1 missing file[ucs.sty].
92666 2013-03-13 06:04:07 /0806/0806.3537 560000[{definition}, {lemma}, {theorem}, \qed, {proof}]; 1 missing file[colt08e.sty].
92667 2013-03-13 06:04:06 /0806/0806.3541 520000[\gtrsim]; 1 missing file[aas_symbols.sty].
92668 2013-03-13 06:03:56 /0806/0806.3474 13710000[Align].
92669 2013-03-13 06:03:37 /0806/0806.3521 0130000[\Issue, \accepted, \Month, \institute, \Yearsubmission, \Volume, \Yearpublication, \publonline, \Pagespan, \email, \titlerunning, \authorrunning, \received].
92670 2013-03-13 06:03:24 /0806/0806.3525 030000[\extrasenglish, \dateenglish, \captionsenglish].
92671 2013-03-13 06:03:08 /0806/0806.3509 690000[\Ref, \si, \al, \eq, \<, \La, \ga, \bt, \la].
92672 2013-03-13 06:03:07 /0806/0806.3512 610000[\subref].
92673 2013-03-13 06:03:03 /0806/0806.3458 40620000[\psfrag].
92674 2013-03-13 06:02:50 /0806/0806.3511 520000[\email, \affiliation]; 1 missing file[qm2008_abs.cls].
92675 2013-03-13 06:02:40 /0806/0806.3472 8610000[\dashline].
92676 2013-03-13 06:02:40 /0806/0806.3499 2450000[\theoremheaderfont, \theorembodyfont, \theoremseparator, \theoremsymbol]; 1 missing file[xy.sty].
92677 2013-03-13 06:02:25 /0806/0806.3444 67130000[\scr, Align, \xymatrix, \ar]; 9 missing files[xycurve.sty, xymatrix.sty, xyline.sty, xyarrow.sty, xycmtip.sty, xycolor.sty, xyrotate.sty, xyframe.sty, xygraph.sty].
92678 2013-03-13 06:02:12 /0806/0806.3487 150000[Align, \xymatrix, \ar]; 2 missing files[flafter.sty, xy.sty].
92679 2013-03-13 06:02:02 /0806/0806.3506 140000[\cmidrule, \midrule, \toprule, \bottomrule].
92680 2013-03-13 06:01:24 /0806/0806.3494 180000[\inst, \institute, \keywords, \email, \volnopage, \titlerunning, \authorrunning, {acknowledgements}]; 1 missing file[cjaa.cls].
92681 2013-03-13 06:01:22 /0806/0806.3477 110000[{AMS}].
92682 2013-03-13 06:00:28 /0806/0806.3466 630000[\theappendix, \ocis, \address].
92683 2013-03-13 05:59:57 /0806/0806.3461 030000[\extrasenglish, \dateenglish, \captionsenglish].
92684 2013-03-13 05:59:45 /0806/0806.3443 480000[\firstsection, \editors, \affiliation, \jname, \pagerange, \keywords, \volume, \pubyear]; 1 missing file[iaus.cls].
92685 2013-03-13 05:59:42 /0806/0806.3450 110000[\slashed].
92686 2013-03-13 05:59:36 /0806/0806.3421 6560000[Align, \xyoption, \xymatrix, \ar, \CompileMatrices]; 1 missing file[xy.sty].
92687 2013-03-13 05:59:25 /0806/0806.3442 2850000[\address, \thanksref, {frontmatter}, {keyword}, \ead]; 1 missing file[autart2.cls].
92688 2013-03-13 05:59:25 /0806/0806.3451 870000[\texttt, \\, \title, \mbox, \date, \textsc, \author].
92689 2013-03-13 05:58:56 /0806/0806.3439 030000[\extrasenglish, \dateenglish, \captionsenglish].
92690 2013-03-13 05:58:21 /0806/0806.3387 3410000[\mathds].
92691 2013-03-13 05:57:49 /0806/0806.3420 5610000[\topmargin].
92692 2013-03-13 05:57:27 /0806/0806.3412 030000[\extrasenglish, \dateenglish, \captionsenglish].
92693 2013-03-13 05:57:15 /0806/0806.3398 040000[\kword, \abst, \inst, \recdate].
92694 2013-03-13 05:57:11 /0806/0806.3409 1320000[\includeversion]; 1 missing file[version.sty].
92695 2013-03-13 05:57:03 /0806/0806.3408 1170000[\catchline, {history}, \newcounter, \refcite, \keywords, \received]; 1 missing file[ws.sty].
92696 2013-03-13 05:55:32 /0806/0806.3397 280000[\noextrasitalian, \noextrasenglish, \extrasitalian, \dateitalian, \dateenglish, \extrasenglish, \captionsitalian, \captionsenglish].
92697 2013-03-13 05:55:02 /0806/0806.3383 9160000[\arcmin, \accepted, \Month, \publonline, \email, \arcsec, \titlerunning, \authorrunning, \received, \Issue, \Yearsubmission, \institute, \Yearpublication, \Volume, \Pagespan, \farcs].
92698 2013-03-13 05:54:42 /0806/0806.3369 010000[\theappendix].
92699 2013-03-13 05:54:29 /0806/0806.3290 17950000[Align, \psfrag, \xymatrix, \ar]; 1 missing file[sidecap.sty].
92700 2013-03-13 05:54:09 /0806/0806.3318 7910000[\mathinner].
92701 2013-03-13 05:54:07 /0806/0806.3351 61140000[Align, \xymatrixcolsep, \xymatrix, \ar, \xymatrixrowsep]; 9 missing files[xycurve.sty, xymatrix.sty, xyline.sty, xyarrow.sty, xycmtip.sty, xycolor.sty, xyrotate.sty, xyframe.sty, xygraph.sty].
92702 2013-03-13 05:53:59 /0806/0806.3205 311340000[Align, \node, \xymatrix, \dgARROWLENGTH, \arrow, {diagram}, \ar]; 2 missing files[xy.sty, T2Aenc.def].
92703 2013-03-13 05:53:42 /0806/0806.3360 230000[{theacknowledgments}, \layoutstyle, \classification].
92704 2013-03-13 05:52:49 /0806/0806.3352 530000[\bra, \braket, \ket].
92705 2013-03-13 05:52:31 /0806/0806.3258 3540000[\cmidrule, \addlinespace, \toprule, \bottomrule].
92706 2013-03-13 05:52:28 /0806/0806.3344 1120000[\backslashbox]; 1 missing file[slashbox.sty].
92707 2013-03-13 05:52:17 /0806/0806.3332 2160000[\lar, \radder, \rmult, {proof}, \et, \filt, \ar, \st]; 2 missing files[signal.sty, IEEEtran.cls].
92708 2013-03-13 05:52:09 /0806/0806.3341 360000[\keyword, \PACS, \topage, \frompage, \authors]; 1 missing file[spadre2008.sty].
92709 2013-03-13 05:51:32 /0806/0806.3331 1100000[\surname, \institute, \runningtitle, {opening}, {article}, {acks}, \keywords, \sep, \runningauthor]; 2 missing files[spr-sola-addons.sty, SolarPhysics.cls].
92710 2013-03-13 05:51:27 /0806/0806.3298 96140000[\uuline, Align, \xymatrix, \normalem, \ar]; 9 missing files[xycurve.sty, xymatrix.sty, xyline.sty, xyarrow.sty, xycmtip.sty, xycolor.sty, xyrotate.sty, xyframe.sty, xygraph.sty].
92711 2013-03-13 05:50:53 /0806/0806.3314 350000[{IEEEkeywords}, \IEEEPARstart, \IEEEpeerreviewmaketitle, \ifCLASSOPTIONcaptionsoff]; 1 missing file[IEEEtran.cls].
92712 2013-03-13 05:50:46 /0806/0806.3315 2780000[{IEEEkeywords}, \IEEEPARstart, \IEEEpeerreviewmaketitle, \ifCLASSOPTIONcaptionsoff, \ifCLASSINFOpdf]; 1 missing file[IEEEtran.cls].
92713 2013-03-13 05:50:37 /0806/0806.3301 2830000[\psfrag, \citeasnoun, \psfrags].
92714 2013-03-13 05:50:26 /0806/0806.3286 4760000[\harvardright, \possessivecite, \harvarditem, \citeasnoun, \harvardand, \harvardleft].
92715 2013-03-13 05:50:21 /0806/0806.3300 040000[{keywords}, \PARstart, \authorinfo, \psfrag].
92716 2013-03-13 05:50:12 /0806/0806.3245 164950000[Align, \xymatrix, \ar]; 9 missing files[xycurve.sty, xymatrix.sty, xyline.sty, xyarrow.sty, xycmtip.sty, xycolor.sty, xyrotate.sty, xyframe.sty, xygraph.sty].
92717 2013-03-13 05:49:35 /0806/0806.3256 2330000[Align, \xymatrix, \ar].
92718 2013-03-13 05:49:31 /0806/0806.3281 940000[Align, \xymatrix, \ar]; 1 missing file[xy.sty].
92719 2013-03-13 05:48:59 /0806/0806.3277 010000[\tsum].
92720 2013-03-13 05:48:53 /0806/0806.3261 1980000[\BY, \TITLE, \IN, \ADLIB, \@affiliation, \atque, \etal].
92721 2013-03-13 05:48:53 /0806/0806.3285 040000[\extrasenglish, {comment}, \dateenglish, \captionsenglish].
92722 2013-03-13 05:48:50 /0806/0806.3279 180000[\firstsection, \editors, \affiliation, \jname, \pagerange, \keywords, \volume, \pubyear]; 1 missing file[iaus.cls].
92723 2013-03-13 05:48:07 /0806/0806.3242 14030000[\unichar, \PrerenderUnicode]; 1 missing file[ucs.sty].
92724 2013-03-13 05:47:46 /0806/0806.3246 4840000[\theappendix, \title, \thanks, \author].
92725 2013-03-13 05:47:41 /0806/0806.3263 310000[\theappendix].
92726 2013-03-13 05:46:48 /0806/0806.3230 12560000[\Blue, \Brown, \Purple]; 2 missing files[xy.sty, colordvi.sty].
92727 2013-03-13 05:46:48 /0806/0806.3236 1210000[\mathds].
92728 2013-03-13 05:46:41 /0806/0806.3235 220000[\boxtimes, \newsymbol].
92729 2013-03-13 05:46:36 /0806/0806.3224 310000[\slashed].
92730 2013-03-13 05:46:33 /0806/0806.3238 130000[\kword, \abst, \inst].
92731 2013-03-13 05:46:30 /0806/0806.3244 230000[\mathds].
92732 2013-03-13 05:46:23 /0806/0806.3239 240000[\theappendix, \ocis, \address, \email].
92733 2013-03-13 05:46:14 /0806/0806.3207 8120000[\QTR, \dsum].
92734 2013-03-13 05:46:06 /0806/0806.3227 630000[{keywords}, \IEEEmembership, {proof}]; 1 missing file[IEEEtran.cls].
92735 2013-03-13 05:45:43 /0806/0806.3222 250000[\theoremheaderfont, \theorembodyfont, \theoremstyle, \theoremsymbol, \theoremseparator].
92736 2013-03-13 05:45:40 /0806/0806.3233 3010000[\topmargin].
92737 2013-03-13 05:45:07 /0806/0806.3193 1420000[\bfR, \psfrag].
92738 2013-03-13 05:44:45 /0806/0806.3201 1480000[\conferenceinfo, \affaddr, \numberofauthors, \alignauthor, \crdata, \includegraphics, \proof, \CopyrightYear]; 1 missing file[sig-alt-mod.cls].
92739 2013-03-13 05:44:32 /0806/0806.3180 64340000[\MOR, \ams, \authorone, \addressone, \SPA, \authornames, \shorttitle, {lem}, {thm}, {defn}, \authortwo, {cor}, \ack, \sP, {prop}, \sE, {ex}, \IETIT, \cvgdist, {rem}, \cov, \addresstwo].
92740 2013-03-13 05:44:09 /0806/0806.3212 27290000[\naput, \pswedge, {pspicture}, \rnode, \cnode, \psframebox, \ncbar, \nput, \pnode, \ncline, \psline, \nbput, \rput, \fnode, \psframe]; 1 missing file[pst-all.sty].
92741 2013-03-13 05:44:07 /0806/0806.3208 810000[\varv].
92742 2013-03-13 05:43:55 /0806/0806.3177 74170000[{xy}, \cir, \xymatrix, \sslash, Align, \SelectTips, \ar, \hole]; 9 missing files[xycurve.sty, xymatrix.sty, xyline.sty, xyarrow.sty, xycmtip.sty, xycolor.sty, xyrotate.sty, xyframe.sty, xygraph.sty].
92743 2013-03-13 05:43:49 /0806/0806.3122 59080000[\citen].
92744 2013-03-13 05:43:33 /0806/0806.3194 2240000[\theappendix, \ocis, \address, \email].
92745 2013-03-13 05:43:21 /0806/0806.3174 11340000[\yng, \Yboxdim, \Yinterspace, \young].
92746 2013-03-13 05:43:20 /0806/0806.3187 1610000[\theappendix].
92747 2013-03-13 05:43:20 /0806/0806.3199 030000[{theacknowledgments}, \layoutstyle, \classification].
92748 2013-03-13 05:43:12 /0806/0806.3179 120000[\ack, \ead].
92749 2013-03-13 05:43:03 /0806/0806.3185 090000[\apj, \tableline, \aap, \altaffilmark, \arcsec, \altaffiltext, \acknowledgements, \araa]; 1 missing file[prcsa2008.sty].
92750 2013-03-13 05:42:17 /0806/0806.3160 510000[\dint].
92751 2013-03-13 05:42:16 /0806/0806.3155 10140000[\Abstract, \ArticleName, \ShortArticleName, \FirstPageHeading, \Address, \pdfbookmark, \LastPageEnding, \Classification, \ArticleDates, \Author, \Email, \AuthorNameForHeading, \URLaddress, \Keywords].
92752 2013-03-13 05:42:05 /0806/0806.3110 1950000[Align, \mathinner, \xymatrix, \ar]; 1 missing file[xy.sty].
92753 2013-03-13 05:41:59 /0806/0806.3163 2140000[\binom, \dint, \QOVERD, \dprod].
92754 2013-03-13 05:41:48 /0806/0806.3138 31340000[\theappendix].
92755 2013-03-13 05:41:28 /0806/0806.3143 1520000[\ack, \ead].
92756 2013-03-13 05:41:02 /0806/0806.3140 2210000[\slashed].
92757 2013-03-13 05:40:58 /0806/0806.3148 1220000[\ack, \ead].
92758 2013-03-13 05:40:56 /0806/0806.3098 7040000[\equal, \bvec, \ifthenelse, \geometry].
92759 2013-03-13 05:40:39 /0806/0806.3065 114190000[\ifpdf, {dedication}, \frontmatter, \href, \thechapter, \thechapter@ID, \@currentID, \mainmatter, {acknowledgements}]; 1 missing file[CUEDthesisPSnPDF.cls].
92760 2013-03-13 05:40:17 /0806/0806.3127 22120000[\colhead, \tablehead, \tablewidth, \tabletypesize, \theappendix, {deluxetable}, \tablecomments, Align, \startdata, \tablecaption, \enddata]; 1 missing file[deluxetable.sty].
92761 2013-03-13 05:39:56 /0806/0806.3115 11830000[\pstree, \TR]; 1 missing file[pst-tree.sty].
92762 2013-03-13 05:39:21 /0806/0806.3117 230000[\kword, \abst, \inst].
92763 2013-03-13 05:39:10 /0806/0806.3103 8140000[{tabnote}, \fref, \tbl, \refcite, \keywords, \colrule, \Fref, \Tref, \tref, \botrule, \bodymatter, \toprule]; 1 missing file[ws.sty].
92764 2013-03-13 05:38:59 /0806/0806.3104 060000[\ack, \dashed, \full, \dotted, \chain, \ead].
92765 2013-03-13 05:38:54 /0806/0806.3107 150000[\pacs, \Name, \shortauthor, \institute, \REVIEW]; 1 missing file[epl2.cls].
92766 2013-03-13 05:38:51 /0806/0806.3091 140000[{theacknowledgments}, \layoutstyle, \classification]; 1 missing file[{aipcheck}].
92767 2013-03-13 05:38:45 /0806/0806.3081 220000[\abovecaptionskip, \belowcaptionskip].
92768 2013-03-13 05:38:42 /0806/0806.3069 2360000[{SCfigure}, \psfrag]; 1 missing file[sidecap.sty].
92769 2013-03-13 05:38:40 /0806/0806.3078 0150000[\psdot, \pscurve, \psellipse, {pspicture}, \pscircle].
92770 2013-03-13 05:37:48 /0806/0806.3070 030000[\extrasenglish, \dateenglish, \captionsenglish].
92771 2013-03-13 05:37:32 /0806/0806.2903 140390000[{xy}, \xymatrix, \crv, \frm, Align, \everyxy, \xycircle, \dir, \ar]; 1 missing file[xy.sty].
92772 2013-03-13 05:37:30 /0806/0806.3018 1430000[{sidewaystable}, \@end@institute].
92773 2013-03-13 05:37:30 /0806/0806.3043 5340000[\slashed, \scalefont]; 2 missing files[colordvi.sty, pslatex.sty].
92774 2013-03-13 05:37:20 /0806/0806.3064 010000[\theappendix].
92775 2013-03-13 05:37:09 /0806/0806.3061 060000[\plotone, \citep, \altaffiltext, \acknowledgements, \altaffilmark]; 1 missing file[asp2006.sty].
92776 2013-03-13 05:37:06 /0806/0806.3056 10330000[\enddiagram, Align, \rto, \dto, \diagram]; 1 missing file[xy.sty].
92777 2013-03-13 05:35:50 /0806/0806.3040 9130000[\ccode, \catchline, \psfig, \keywords]; 1 missing file[ws.sty].
92778 2013-03-13 05:35:39 /0806/0806.3008 196160000[\coloneqq]; 2 missing files[mathtools.sty, mathdesign.sty].
92779 2013-03-13 05:35:35 /0806/0806.3016 16580000[\cyrd, \textnumero, \CYRE, \cyrishrt, \CYRB, \cyrl, \CYRS, \cyrerev, \cyrv, \CYRU, \CYRC, \cyryu, \cyrsftsn, \CYRT, \CYRL, \cyrk, \cyro, \cyrb, \cyrz, \cyrch, \CYRSH, \cyru, \CYRK, \cyra, \cyrsh, \CYRI, \CYRYA, \CYRD, \cyrf, \cyrg, \cyrs, \cyrn, \cyrshch
92780 2013-03-13 05:35:30 /0806/0806.3047 520000[\layoutstyle, \classification].
92781 2013-03-13 05:35:05 /0806/0806.3028 520000[\Chapter]; 1 missing file[multind.sty].
92782 2013-03-13 05:34:55 /0806/0806.3023 3830000[{keywords}, \IEEEoverridecommandlockouts, {proof}]; 1 missing file[IEEEtran.cls].
92783 2013-03-13 05:34:48 /0806/0806.3035 140000[\authorinfo, \skiplinehalf, \keywords, \supit]; 1 missing file[spie2004.cls].
92784 2013-03-13 05:34:12 /0806/0806.3010 4350000[\address, \email, \keywords, \volume]; 2 missing files[afterpage.sty, jgokova.cls].
92785 2013-03-13 05:34:11 /0806/0806.3009 2910000[{comment}].
92786 2013-03-13 05:34:10 /0806/0806.3019 140000[\affiliation, \keywords]; 1 missing file[iaus.cls].
92787 2013-03-13 05:34:04 /0806/0806.2902 16770000[Align, \xyoption, \xymatrix, \ar]; 1 missing file[xy.sty].
92788 2013-03-13 05:34:02 /0806/0806.3003 010000[\ead].
92789 2013-03-13 05:34:01 /0806/0806.3013 45150000[Align, \xyoption, \xymatrix, \ar]; 1 missing file[xy.sty].
92790 2013-03-13 05:33:53 /0806/0806.2995 16110000[\theappendix, {psmatrix}, Align].
92791 2013-03-13 05:33:28 /0806/0806.3011 0140000[\comby, \accepted, \psfig, \tbl, \refcite, \keywords, \colrule, {history}, \gtrsim, \boldsymbol, \botrule, \toprule, \received]; 1 missing file[ws.sty].
92792 2013-03-13 05:33:15 /0806/0806.2991 4060000[\iddots, \authorblockN, \authorrefmark, \authorblockA, \psfrag]; 2 missing files[IEEEtran.cls, xy.sty].
92793 2013-03-13 05:33:14 /0806/0806.2984 1110000[\mathds].
92794 2013-03-13 05:32:42 /0806/0806.2996 030000[\extrasenglish, \dateenglish, \captionsenglish].
92795 2013-03-13 05:31:16 /0806/0806.2977 350000[\address, \runauthor, \runtitle, \readRCS]; 1 missing file[stylefile.sty].
92796 2013-03-13 05:31:09 /0806/0806.2933 13330000[\theappendix, \psfrag, \psfragscanon].
92797 2013-03-13 05:30:38 /0806/0806.2967 2480000[\extrasenglish, Align, \xymatrix, \ar, \dateenglish, \captionsenglish]; 9 missing files[xycurve.sty, xymatrix.sty, xyline.sty, xyarrow.sty, xycmtip.sty, xycolor.sty, xyrotate.sty, xyframe.sty, xygraph.sty].
92798 2013-03-13 05:30:08 /0806/0806.2956 030000[{theacknowledgments}, \layoutstyle, \classification].
92799 2013-03-13 05:29:38 /0806/0806.2951 790000[\psfrag, \psfragscanon, {psfrags}]; 2 missing files[mathlett.sty, colordvi.sty].
92800 2013-03-13 05:29:36 /0806/0806.2949 330000[\extrasenglish, \dateenglish, \captionsenglish].
<<< >>>

[0] [200] [400] [600] [800] [1000] [1200] [1400] [1600] [1800] [2000] [2200] [2400] [2600] [2800] [3000] [3200] [3400] [3600] [3800] [4000] [4200] [4400] [4600] [4800] [5000] [5200] [5400] [5600] [5800] [6000] [6200] [6400] [6600] [6800] [7000] [7200] [7400] [7600] [7800] [8000] [8200] [8400] [8600] [8800] [9000] [9200] [9400] [9600] [9800] [10000] [10200] [10400] [10600] [10800] [11000] [11200] [11400] [11600] [11800] [12000] [12200] [12400] [12600] [12800] [13000] [13200] [13400] [13600] [13800] [14000] [14200] [14400] [14600] [14800] [15000] [15200] [15400] [15600] [15800] [16000] [16200] [16400] [16600] [16800] [17000] [17200] [17400] [17600] [17800] [18000] [18200] [18400] [18600] [18800] [19000] [19200] [19400] [19600] [19800] [20000] [20200] [20400] [20600] [20800] [21000] [21200] [21400] [21600] [21800] [22000] [22200] [22400] [22600] [22800] [23000] [23200] [23400] [23600] [23800] [24000] [24200] [24400] [24600] [24800] [25000] [25200] [25400] [25600] [25800] [26000] [26200] [26400] [26600] [26800] [27000] [27200] [27400] [27600] [27800] [28000] [28200] [28400] [28600] [28800] [29000] [29200] [29400] [29600] [29800] [30000] [30200] [30400] [30600] [30800] [31000] [31200] [31400] [31600] [31800] [32000] [32200] [32400] [32600] [32800] [33000] [33200] [33400] [33600] [33800] [34000] [34200] [34400] [34600] [34800] [35000] [35200] [35400] [35600] [35800] [36000] [36200] [36400] [36600] [36800] [37000] [37200] [37400] [37600] [37800] [38000] [38200] [38400] [38600] [38800] [39000] [39200] [39400] [39600] [39800] [40000] [40200] [40400] [40600] [40800] [41000] [41200] [41400] [41600] [41800] [42000] [42200] [42400] [42600] [42800] [43000] [43200] [43400] [43600] [43800] [44000] [44200] [44400] [44600] [44800] [45000] [45200] [45400] [45600] [45800] [46000] [46200] [46400] [46600] [46800] [47000] [47200] [47400] [47600] [47800] [48000] [48200] [48400] [48600] [48800] [49000] [49200] [49400] [49600] [49800] [50000] [50200] [50400] [50600] [50800] [51000] [51200] [51400] [51600] [51800] [52000] [52200] [52400] [52600] [52800] [53000] [53200] [53400] [53600] [53800] [54000] [54200] [54400] [54600] [54800] [55000] [55200] [55400] [55600] [55800] [56000] [56200] [56400] [56600] [56800] [57000] [57200] [57400] [57600] [57800] [58000] [58200] [58400] [58600] [58800] [59000] [59200] [59400] [59600] [59800] [60000] [60200] [60400] [60600] [60800] [61000] [61200] [61400] [61600] [61800] [62000] [62200] [62400] [62600] [62800] [63000] [63200] [63400] [63600] [63800] [64000] [64200] [64400] [64600] [64800] [65000] [65200] [65400] [65600] [65800] [66000] [66200] [66400] [66600] [66800] [67000] [67200] [67400] [67600] [67800] [68000] [68200] [68400] [68600] [68800] [69000] [69200] [69400] [69600] [69800] [70000] [70200] [70400] [70600] [70800] [71000] [71200] [71400] [71600] [71800] [72000] [72200] [72400] [72600] [72800] [73000] [73200] [73400] [73600] [73800] [74000] [74200] [74400] [74600] [74800] [75000] [75200] [75400] [75600] [75800] [76000] [76200] [76400] [76600] [76800] [77000] [77200] [77400] [77600] [77800] [78000] [78200] [78400] [78600] [78800] [79000] [79200] [79400] [79600] [79800] [80000] [80200] [80400] [80600] [80800] [81000] [81200] [81400] [81600] [81800] [82000] [82200] [82400] [82600] [82800] [83000] [83200] [83400] [83600] [83800] [84000] [84200] [84400] [84600] [84800] [85000] [85200] [85400] [85600] [85800] [86000] [86200] [86400] [86600] [86800] [87000] [87200] [87400] [87600] [87800] [88000] [88200] [88400] [88600] [88800] [89000] [89200] [89400] [89600] [89800] [90000] [90200] [90400] [90600] [90800] [91000] [91200] [91400] [91600] [91800] [92000] [92200] [92400] [92600] [92800] [93000] [93200] [93400] [93600] [93800] [94000] [94200] [94400] [94600] [94800] [95000] [95200] [95400] [95600] [95800] [96000] [96200] [96400] [96600] [96800] [97000] [97200] [97400] [97600] [97800] [98000] [98200] [98400] [98600] [98800] [99000] [99200] [99400] [99600] [99800] [100000] [100200] [100400] [100600] [100800] [101000] [101200] [101400] [101600] [101800] [102000] [102200] [102400] [102600] [102800] [103000] [103200] [103400] [103600] [103800] [104000] [104200] [104400] [104600] [104800] [105000] [105200] [105400] [105600] [105800] [106000] [106200] [106400] [106600] [106800] [107000] [107200] [107400] [107600] [107800] [108000] [108200] [108400] [108600] [108800] [109000] [109200] [109400] [109600] [109800] [110000] [110200] [110400] [110600] [110800] [111000] [111200] [111400] [111600] [111800] [112000] [112200] [112400] [112600] [112800] [113000] [113200] [113400] [113600] [113800] [114000] [114200] [114400] [114600] [114800] [115000] [115200] [115400] [115600] [115800] [116000] [116200] [116400] [116600] [116800] [117000] [117200] [117400] [117600] [117800] [118000] [118200] [118400] [118600] [118800] [119000] [119200] [119400] [119600] [119800] [120000] [120200] [120400] [120600] [120800] [121000] [121200] [121400] [121600] [121800] [122000] [122200] [122400] [122600] [122800] [123000] [123200] [123400] [123600] [123800] [124000] [124200] [124400] [124600] [124800] [125000] [125200] [125400] [125600] [125800] [126000] [126200] [126400] [126600] [126800] [127000] [127200] [127400] [127600] [127800] [128000] [128200] [128400] [128600] [128800] [129000] [129200] [129400] [129600] [129800] [130000] [130200] [130400] [130600] [130800] [131000] [131200] [131400] [131600] [131800] [132000] [132200] [132400] [132600] [132800] [133000] [133200] [133400] [133600] [133800] [134000] [134200] [134400] [134600] [134800] [135000] [135200] [135400] [135600] [135800] [136000] [136200] [136400] [136600] [136800] [137000] [137200] [137400] [137600] [137800] [138000] [138200] [138400] [138600] [138800] [139000] [139200] [139400] [139600] [139800] [140000] [140200] [140400] [140600] [140800] [141000] [141200] [141400] [141600] [141800] [142000] [142200] [142400] [142600] [142800] [143000] [143200] [143400] [143600] [143800] [144000] [144200] [144400] [144600] [144800] [145000] [145200] [145400] [145600] [145800] [146000] [146200] [146400] [146600] [146800] [147000] [147200] [147400] [147600] [147800] [148000] [148200] [148400] [148600] [148800] [149000] [149200] [149400] [149600] [149800] [150000] [150200] [150400] [150600] [150800] [151000] [151200] [151400] [151600] [151800] [152000] [152200] [152400] [152600] [152800] [153000] [153200] [153400] [153600] [153800] [154000] [154200] [154400] [154600] [154800] [155000] [155200] [155400] [155600] [155800] [156000] [156200] [156400] [156600] [156800] [157000] [157200] [157400] [157600] [157800] [158000] [158200] [158400] [158600] [158800] [159000] [159200] [159400] [159600] [159800] [160000] [160200] [160400] [160600] [160800] [161000] [161200] [161400] [161600] [161800] [162000] [162200] [162400] [162600] [162800] [163000] [163200] [163400] [163600] [163800] [164000] [164200] [164400] [164600]
 
  The service has been written by
Heinrich Stamerjohanns